createdAt,value
2023-04-02T00:00:37.181Z,98760.03
2023-04-02T00:03:09.903Z,98754.19
2023-04-02T00:05:50.654Z,98765.34
2023-04-02T00:08:39.031Z,98769.63
2023-04-02T00:11:07.833Z,98773.25
2023-04-02T00:13:40.112Z,98765.97
2023-04-02T00:16:12.590Z,98775.53
2023-04-02T00:18:48.994Z,98772.75
2023-04-02T00:21:21.651Z,98782.09
2023-04-02T00:23:49.414Z,98778.47
2023-04-02T00:26:38.282Z,98774.59
2023-04-02T00:29:06.982Z,98776.28
2023-04-02T00:31:37.353Z,98784.66
2023-04-02T00:34:07.433Z,98776.28
2023-04-02T00:36:35.593Z,98780.31
2023-04-02T00:39:11.272Z,98787.31
2023-04-02T00:41:39.180Z,98787.56
2023-04-02T00:44:06.950Z,98793.75
2023-04-02T00:46:47.351Z,98801.28
2023-04-02T00:49:36.521Z,98798.72
2023-04-02T00:52:07.693Z,98804.91
2023-04-02T00:54:48.868Z,98797.38
2023-04-02T00:57:26.795Z,98802.13
2023-04-02T01:00:12.204Z,98794.84
2023-04-02T01:02:41.021Z,98787.56
2023-04-02T01:05:17.895Z,98794.59
2023-04-02T01:08:13.458Z,98793.75
2023-04-02T01:10:54.613Z,98797.78
2023-04-02T01:13:33.466Z,98795.84
2023-04-02T01:16:19.503Z,98801.41
2023-04-02T01:19:02.012Z,98796.44
2023-04-02T01:22:07.116Z,98792.78
2023-04-02T01:24:37.454Z,98792.78
2023-04-02T01:27:08.351Z,98787.47
2023-04-02T01:29:38.779Z,98795.09
2023-04-02T01:32:09.722Z,98795.09
2023-04-02T01:34:38.140Z,98792.06
2023-04-02T01:37:18.087Z,98779.19
2023-04-02T01:39:52.764Z,98792.28
2023-04-02T01:42:41.940Z,98783.72
2023-04-02T01:45:13.005Z,98783.94
2023-04-02T01:47:41.312Z,98787.34
2023-04-02T01:50:31.863Z,98797.41
2023-04-02T01:53:03.154Z,98790.34
2023-04-02T01:55:54.187Z,98796.31
2023-04-02T01:58:25.730Z,98790.47
2023-04-02T02:01:09.520Z,98790.47
2023-04-02T02:03:40.844Z,98782.38
2023-04-02T02:06:12.774Z,98789.13
2023-04-02T02:08:48.618Z,98785.16
2023-04-02T02:11:22.530Z,98787.94
2023-04-02T02:14:17.752Z,98798.25
2023-04-02T02:17:26.694Z,98791.19
2023-04-02T02:19:57.518Z,98792.94
2023-04-02T02:22:31.255Z,98792.94
2023-04-02T02:25:01.227Z,98796.78
2023-04-02T02:27:28.994Z,98796.56
2023-04-02T02:30:20.590Z,98794.88
2023-04-02T02:32:55.068Z,98799.09
2023-04-02T02:35:31.187Z,98795.47
2023-04-02T02:38:14.973Z,98806.13
2023-04-02T02:40:46.318Z,98801.19
2023-04-02T02:43:14.881Z,98806.13
2023-04-02T02:45:43.396Z,98802.50
2023-04-02T02:48:17.972Z,98800.31
2023-04-02T02:50:46.074Z,98803.09
2023-04-02T02:53:24.701Z,98809.06
2023-04-02T02:55:58.163Z,98814.88
2023-04-02T02:58:32.117Z,98815.97
2023-04-02T03:01:23.247Z,98814.03
2023-04-02T03:03:55.437Z,98818.28
2023-04-02T03:06:25.264Z,98814.63
2023-04-02T03:09:23.775Z,98825.59
2023-04-02T03:12:08.994Z,98815.47
2023-04-02T03:14:46.915Z,98823.63
2023-04-02T03:17:24.566Z,98816.56
2023-04-02T03:20:11.538Z,98828.97
2023-04-02T03:22:46.915Z,98821.69
2023-04-02T03:25:29.965Z,98827.28
2023-04-02T03:28:05.525Z,98820.22
2023-04-02T03:30:46.767Z,98821.31
2023-04-02T03:33:38.906Z,98821.69
2023-04-02T03:36:20.021Z,98834.94
2023-04-02T03:38:52.837Z,98835.78
2023-04-02T03:41:34.397Z,98834.69
2023-04-02T03:44:07.825Z,98831.91
2023-04-02T03:46:42.737Z,98841.50
2023-04-02T03:49:20.663Z,98837.13
2023-04-02T03:52:07.032Z,98828.25
2023-04-02T03:54:37.084Z,98830.81
2023-04-02T03:57:08.417Z,98826.91
2023-04-02T03:59:36.811Z,98832.88
2023-04-02T04:02:13.195Z,98830.94
2023-04-02T04:04:43.928Z,98826.81
2023-04-02T04:07:30.438Z,98827.78
2023-04-02T04:09:58.966Z,98825.31
2023-04-02T04:12:26.769Z,98827.88
2023-04-02T04:15:04.310Z,98831.50
2023-04-02T04:17:51.662Z,98833.22
2023-04-02T04:20:28.238Z,98836.88
2023-04-02T04:23:09.259Z,98840.50
2023-04-02T04:25:37.317Z,98846.09
2023-04-02T04:28:24.372Z,98852.53
2023-04-02T04:31:21.169Z,98859.22
2023-04-02T04:33:56.118Z,98846.81
2023-04-02T04:36:29.056Z,98853.38
2023-04-02T04:39:17.790Z,98850.22
2023-04-02T04:41:49.082Z,98848.75
2023-04-02T04:45:06.627Z,98865.03
2023-04-02T04:47:38.705Z,98856.66
2023-04-02T04:50:16.792Z,98867.97
2023-04-02T04:52:44.800Z,98859.94
2023-04-02T04:55:37.671Z,98864.16
2023-04-02T04:58:17.188Z,98860.06
2023-04-02T05:00:53.086Z,98860.53
2023-04-02T05:03:38.296Z,98867.94
2023-04-02T05:06:19.995Z,98866.59
2023-04-02T05:08:49.623Z,98867.81
2023-04-02T05:11:26.693Z,98873.16
2023-04-02T05:13:58.392Z,98869.75
2023-04-02T05:16:31.821Z,98874.97
2023-04-02T05:19:15.034Z,98870.34
2023-04-02T05:22:04.599Z,98874.75
2023-04-02T05:24:59.824Z,98870.25
2023-04-02T05:27:42.015Z,98886.16
2023-04-02T05:30:19.728Z,98886.88
2023-04-02T05:32:53.679Z,98891.50
2023-04-02T05:35:27.860Z,98890.16
2023-04-02T05:37:55.868Z,98878.25
2023-04-02T05:41:01.122Z,98889.31
2023-04-02T05:43:31.747Z,98891.88
2023-04-02T05:46:04.391Z,98893.19
2023-04-02T05:48:41.246Z,98900.72
2023-04-02T05:51:17.986Z,98887.50
2023-04-02T05:53:49.786Z,98898.53
2023-04-02T05:56:21.053Z,98891.38
2023-04-02T05:59:26.377Z,98899.25
2023-04-02T06:02:03.401Z,98895.16
2023-04-02T06:05:01.422Z,98899.63
2023-04-02T06:07:36.950Z,98899.13
2023-04-02T06:10:11.092Z,98897.44
2023-04-02T06:13:00.403Z,98888.09
2023-04-02T06:15:29.738Z,98890.38
2023-04-02T06:18:18.732Z,98889.03
2023-04-02T06:20:48.128Z,98889.03
2023-04-02T06:23:36.262Z,98887.91
2023-04-02T06:26:08.624Z,98885.44
2023-04-02T06:29:23.013Z,98886.78
2023-04-02T06:31:52.986Z,98891.22
2023-04-02T06:34:24.964Z,98887.28
2023-04-02T06:37:21.129Z,98884.09
2023-04-02T06:39:51.697Z,98884.88
2023-04-02T06:42:25.143Z,98893.25
2023-04-02T06:45:23.554Z,98882.13
2023-04-02T06:48:18.188Z,98886.13
2023-04-02T06:51:12.211Z,98883.91
2023-04-02T06:53:45.815Z,98890.78
2023-04-02T06:56:28.326Z,98897.41
2023-04-02T06:58:56.402Z,98897.81
2023-04-02T07:01:29.796Z,98899.28
2023-04-02T07:03:58.976Z,98898.28
2023-04-02T07:06:40.761Z,98893.75
2023-04-02T07:09:08.543Z,98893.06
2023-04-02T07:11:39.781Z,98894.25
2023-04-02T07:14:12.552Z,98903.50
2023-04-02T07:16:41.837Z,98905.34
2023-04-02T07:19:20.193Z,98902.72
2023-04-02T07:21:49.519Z,98902.56
2023-04-02T07:24:18.096Z,98905.97
2023-04-02T07:26:48.374Z,98906.31
2023-04-02T07:29:17.509Z,98913.34
2023-04-02T07:31:45.361Z,98915.81
2023-04-02T07:34:13.080Z,98921.91
2023-04-02T07:36:40.815Z,98913.75
2023-04-02T07:39:08.633Z,98915.81
2023-04-02T07:41:54.698Z,98921.56
2023-04-02T07:44:22.575Z,98916.25
2023-04-02T07:46:50.459Z,98926.41
2023-04-02T07:49:18.212Z,98922.78
2023-04-02T07:51:46.170Z,98927.25
2023-04-02T07:54:14.008Z,98927.25
2023-04-02T07:56:41.781Z,98925.47
2023-04-02T07:59:09.774Z,98930.81
2023-04-02T08:01:37.553Z,98928.00
2023-04-02T08:04:20.743Z,98938.34
2023-04-02T08:06:48.864Z,98928.25
2023-04-02T08:09:18.928Z,98927.66
2023-04-02T08:11:46.819Z,98930.69
2023-04-02T08:14:15.045Z,98935.09
2023-04-02T08:16:56.324Z,98931.88
2023-04-02T08:19:24.294Z,98935.50
2023-04-02T08:21:52.136Z,98930.25
2023-04-02T08:24:19.953Z,98935.69
2023-04-02T08:26:49.392Z,98936.06
2023-04-02T08:29:17.327Z,98927.75
2023-04-02T08:31:45.017Z,98935.66
2023-04-02T08:34:12.819Z,98939.03
2023-04-02T08:36:43.345Z,98946.34
2023-04-02T08:39:12.018Z,98945.91
2023-04-02T08:41:47.645Z,98933.34
2023-04-02T08:44:43.328Z,98938.44
2023-04-02T08:47:14.702Z,98943.94
2023-04-02T08:50:10.533Z,98939.56
2023-04-02T08:52:39.051Z,98949.41
2023-04-02T08:55:38.248Z,98939.03
2023-04-02T08:58:25.727Z,98929.44
2023-04-02T09:00:58.103Z,98937.53
2023-04-02T09:03:42.876Z,98939.84
2023-04-02T09:06:16.044Z,98939.59
2023-04-02T09:08:46.455Z,98934.25
2023-04-02T09:11:28.009Z,98937.03
2023-04-02T09:14:00.434Z,98943.22
2023-04-02T09:16:47.350Z,98931.34
2023-04-02T09:19:21.348Z,98938.00
2023-04-02T09:22:15.990Z,98943.72
2023-04-02T09:24:43.673Z,98939.19
2023-04-02T09:27:18.689Z,98924.69
2023-04-02T09:29:48.663Z,98935.38
2023-04-02T09:32:52.850Z,98933.00
2023-04-02T09:35:27.567Z,98939.44
2023-04-02T09:38:10.506Z,98930.44
2023-04-02T09:41:20.115Z,98939.22
2023-04-02T09:43:47.804Z,98944.03
2023-04-02T09:46:26.473Z,98943.63
2023-04-02T09:49:00.959Z,98930.91
2023-04-02T09:51:31.909Z,98935.22
2023-04-02T09:54:02.679Z,98940.81
2023-04-02T09:56:37.927Z,98938.13
2023-04-02T09:59:15.402Z,98934.56
2023-04-02T10:01:48.016Z,98934.13
2023-04-02T10:04:49.617Z,98937.16
2023-04-02T10:07:36.944Z,98934.56
2023-04-02T10:10:27.240Z,98934.38
2023-04-02T10:13:27.393Z,98932.50
2023-04-02T10:15:59.006Z,98933.44
2023-04-02T10:18:40.179Z,98930.44
2023-04-02T10:21:11.315Z,98932.38
2023-04-02T10:23:39.119Z,98921.50
2023-04-02T10:26:39.260Z,98927.50
2023-04-02T10:29:41.739Z,98928.53
2023-04-02T10:32:15.867Z,98929.31
2023-04-02T10:34:50.838Z,98928.41
2023-04-02T10:37:37.160Z,98936.19
2023-04-02T10:40:15.891Z,98929.28
2023-04-02T10:42:43.464Z,98925.28
2023-04-02T10:45:25.661Z,98922.78
2023-04-02T10:48:14.692Z,98925.94
2023-04-02T10:51:34.609Z,98926.53
2023-04-02T10:54:46.938Z,98935.13
2023-04-02T10:57:36.472Z,98927.53
2023-04-02T11:00:09.307Z,98922.50
2023-04-02T11:03:18.712Z,98932.09
2023-04-02T11:05:51.728Z,98927.72
2023-04-02T11:08:34.553Z,98920.19
2023-04-02T11:11:21.482Z,98922.75
2023-04-02T11:14:01.060Z,98911.47
2023-04-02T11:16:29.171Z,98906.97
2023-04-02T11:19:15.196Z,98911.19
2023-04-02T11:21:58.553Z,98914.97
2023-04-02T11:24:30.374Z,98911.56
2023-04-02T11:27:10.389Z,98909.66
2023-04-02T11:29:49.872Z,98917.28
2023-04-02T11:32:20.856Z,98919.06
2023-04-02T11:34:56.280Z,98917.22
2023-04-02T11:37:41.279Z,98923.16
2023-04-02T11:40:12.273Z,98930.41
2023-04-02T11:42:43.589Z,98922.94
2023-04-02T11:45:52.625Z,98921.56
2023-04-02T11:48:21.043Z,98929.19
2023-04-02T11:50:48.992Z,98925.00
2023-04-02T11:53:16.821Z,98914.69
2023-04-02T11:55:46.577Z,98912.28
2023-04-02T11:58:48.292Z,98917.25
2023-04-02T12:01:26.407Z,98909.84
2023-04-02T12:04:27.813Z,98917.50
2023-04-02T12:07:35.135Z,98918.94
2023-04-02T12:10:17.121Z,98915.91
2023-04-02T12:12:44.937Z,98921.53
2023-04-02T12:15:34.542Z,98926.13
2023-04-02T12:18:23.650Z,98918.59
2023-04-02T12:20:56.659Z,98921.63
2023-04-02T12:23:31.550Z,98922.72
2023-04-02T12:26:01.402Z,98934.19
2023-04-02T12:28:31.291Z,98929.91
2023-04-02T12:31:09.501Z,98933.56
2023-04-02T12:33:38.861Z,98917.81
2023-04-02T12:36:10.120Z,98920.91
2023-04-02T12:38:58.565Z,98919.56
2023-04-02T12:41:35.936Z,98921.03
2023-04-02T12:44:06.624Z,98921.97
2023-04-02T12:46:35.329Z,98923.69
2023-04-02T12:49:09.124Z,98918.41
2023-04-02T12:51:37.596Z,98921.81
2023-04-02T12:54:05.722Z,98920.13
2023-04-02T12:56:33.430Z,98910.25
2023-04-02T12:59:01.496Z,98923.22
2023-04-02T13:01:32.014Z,98911.69
2023-04-02T13:04:07.145Z,98914.88
2023-04-02T13:06:36.573Z,98915.13
2023-04-02T13:09:06.713Z,98912.53
2023-04-02T13:11:40.429Z,98921.53
2023-04-02T13:14:20.036Z,98922.09
2023-04-02T13:16:48.083Z,98917.84
2023-04-02T13:19:26.296Z,98920.66
2023-04-02T13:21:55.646Z,98925.44
2023-04-02T13:24:26.006Z,98915.31
2023-04-02T13:26:59.066Z,98931.38
2023-04-02T13:29:29.689Z,98923.50
2023-04-02T13:32:02.932Z,98919.53
2023-04-02T13:34:31.022Z,98926.81
2023-04-02T13:36:59.500Z,98930.69
2023-04-02T13:39:27.255Z,98922.25
2023-04-02T13:41:59.676Z,98929.25
2023-04-02T13:44:29.733Z,98926.66
2023-04-02T13:46:58.500Z,98917.09
2023-04-02T13:49:27.646Z,98921.59
2023-04-02T13:52:03.237Z,98925.53
2023-04-02T13:54:39.867Z,98919.91
2023-04-02T13:57:07.647Z,98932.28
2023-04-02T13:59:35.745Z,98926.66
2023-04-02T14:02:09.179Z,98928.38
2023-04-02T14:04:42.326Z,98924.97
2023-04-02T14:07:12.874Z,98927.50
2023-04-02T14:10:01.208Z,98928.34
2023-04-02T14:12:58.420Z,98931.66
2023-04-02T14:15:40.557Z,98933.00
2023-04-02T14:18:26.845Z,98932.66
2023-04-02T14:21:00.613Z,98932.38
2023-04-02T14:23:46.943Z,98927.88
2023-04-02T14:26:24.378Z,98933.22
2023-04-02T14:29:13.456Z,98933.22
2023-04-02T14:31:49.526Z,98934.59
2023-04-02T14:34:26.283Z,98927.81
2023-04-02T14:37:13.771Z,98940.19
2023-04-02T14:40:07.423Z,98935.94
2023-04-02T14:42:41.198Z,98931.41
2023-04-02T14:45:25.054Z,98930.56
2023-04-02T14:48:07.547Z,98926.34
2023-04-02T14:50:40.540Z,98937.22
2023-04-02T14:53:14.507Z,98941.72
2023-04-02T14:55:43.975Z,98939.47
2023-04-02T14:58:19.877Z,98938.34
2023-04-02T15:01:06.200Z,98943.66
2023-04-02T15:03:38.258Z,98932.03
2023-04-02T15:06:10.980Z,98938.22
2023-04-02T15:09:02.154Z,98935.66
2023-04-02T15:11:47.333Z,98934.22
2023-04-02T15:14:21.849Z,98940.72
2023-04-02T15:16:49.623Z,98930.84
2023-04-02T15:19:18.637Z,98940.97
2023-04-02T15:22:08.807Z,98935.34
2023-04-02T15:24:52.478Z,98941.81
2023-04-02T15:27:31.663Z,98937.31
2023-04-02T15:30:38.617Z,98940.38
2023-04-02T15:33:27.797Z,98940.94
2023-04-02T15:36:31.548Z,98940.28
2023-04-02T15:38:59.045Z,98940.28
2023-04-02T15:41:27.698Z,98939.13
2023-04-02T15:44:07.428Z,98935.47
2023-04-02T15:46:46.430Z,98941.63
2023-04-02T15:49:24.003Z,98942.97
2023-04-02T15:52:19.985Z,98949.72
2023-04-02T15:55:11.036Z,98946.06
2023-04-02T15:58:17.782Z,98954.47
2023-04-02T16:01:11.782Z,98951.59
2023-04-02T16:03:58.031Z,98949.91
2023-04-02T16:06:28.111Z,98956.06
2023-04-02T16:09:22.325Z,98955.22
2023-04-02T16:12:30.602Z,98964.16
2023-04-02T16:15:07.521Z,98962.38
2023-04-02T16:17:41.033Z,98968.84
2023-04-02T16:20:21.953Z,98973.31
2023-04-02T16:23:12.293Z,98986.22
2023-04-02T16:26:00.196Z,98976.88
2023-04-02T16:28:31.610Z,98986.97
2023-04-02T16:31:35.790Z,98992.84
2023-04-02T16:34:16.346Z,98994.72
2023-04-02T16:36:56.372Z,98985.13
2023-04-02T16:39:35.236Z,98992.69
2023-04-02T16:42:06.293Z,98998.84
2023-04-02T16:44:43.119Z,98995.41
2023-04-02T16:47:25.979Z,98994.84
2023-04-02T16:49:56.748Z,98995.38
2023-04-02T16:52:48.739Z,99003.78
2023-04-02T16:55:35.124Z,98998.66
2023-04-02T16:58:29.097Z,99007.63
2023-04-02T17:01:02.995Z,98997.16
2023-04-02T17:03:58.786Z,99002.78
2023-04-02T17:06:42.780Z,98999.66
2023-04-02T17:09:31.699Z,99001.84
2023-04-02T17:12:13.166Z,99008.06
2023-04-02T17:14:52.589Z,99009.19
2023-04-02T17:17:21.659Z,99012.81
2023-04-02T17:19:52.504Z,99011.13
2023-04-02T17:22:22.248Z,99013.69
2023-04-02T17:25:00.898Z,99013.06
2023-04-02T17:27:33.051Z,99010.78
2023-04-02T17:30:18.282Z,99027.63
2023-04-02T17:32:46.245Z,99022.25
2023-04-02T17:35:21.997Z,99022.75
2023-04-02T17:38:25.512Z,99019.09
2023-04-02T17:41:08.181Z,99021.34
2023-04-02T17:43:46.527Z,99018.53
2023-04-02T17:46:38.221Z,99026.94
2023-04-02T17:49:16.388Z,99030.00
2023-04-02T17:52:34.234Z,99027.22
2023-04-02T17:55:22.854Z,99023.47
2023-04-02T17:58:01.323Z,99036.97
2023-04-02T18:00:59.430Z,99031.63
2023-04-02T18:03:49.364Z,99033.25
2023-04-02T18:06:25.294Z,99035.78
2023-04-02T18:09:14.758Z,99035.22
2023-04-02T18:12:18.025Z,99042.78
2023-04-02T18:15:04.517Z,99040.19
2023-04-02T18:17:49.820Z,99032.06
2023-04-02T18:20:48.454Z,99046.06
2023-04-02T18:23:34.574Z,99054.47
2023-04-02T18:26:18.108Z,99044.63
2023-04-02T18:29:16.644Z,99040.13
2023-04-02T18:31:59.844Z,99051.59
2023-04-02T18:34:59.249Z,99043.44
2023-04-02T18:37:39.681Z,99047.94
2023-04-02T18:40:07.536Z,99052.69
2023-04-02T18:42:46.802Z,99052.09
2023-04-02T18:45:26.705Z,99060.78
2023-04-02T18:48:32.733Z,99052.63
2023-04-02T18:51:01.340Z,99055.34
2023-04-02T18:53:31.996Z,99060.09
2023-04-02T18:56:15.053Z,99061.44
2023-04-02T18:58:53.345Z,99060.25
2023-04-02T19:01:33.910Z,99066.44
2023-04-02T19:04:05.581Z,99058.81
2023-04-02T19:06:39.445Z,99073.69
2023-04-02T19:09:15.298Z,99056.19
2023-04-02T19:11:43.116Z,99067.41
2023-04-02T19:14:12.397Z,99070.19
2023-04-02T19:16:46.280Z,99066.19
2023-04-02T19:19:31.246Z,99067.19
2023-04-02T19:22:06.684Z,99065.97
2023-04-02T19:25:02.216Z,99067.31
2023-04-02T19:27:40.318Z,99063.59
2023-04-02T19:30:32.652Z,99063.31
2023-04-02T19:33:22.161Z,99068.09
2023-04-02T19:35:59.887Z,99064.66
2023-04-02T19:38:45.948Z,99067.22
2023-04-02T19:41:40.458Z,99061.53
2023-04-02T19:44:11.264Z,99067.38
2023-04-02T19:46:39.793Z,99057.78
2023-04-02T19:49:23.011Z,99071.78
2023-04-02T19:51:51.907Z,99065.31
2023-04-02T19:54:19.639Z,99068.38
2023-04-02T19:56:47.622Z,99072.56
2023-04-02T19:59:18.207Z,99082.03
2023-04-02T20:01:47.358Z,99085.09
2023-04-02T20:04:15.570Z,99090.44
2023-04-02T20:06:50.738Z,99076.56
2023-04-02T20:09:24.655Z,99053.63
2023-04-02T20:11:52.482Z,99077.66
2023-04-02T20:14:20.265Z,99067.84
2023-04-02T20:16:48.787Z,99070.97
2023-04-02T20:19:16.853Z,99081.31
2023-04-02T20:21:44.634Z,99081.59
2023-04-02T20:24:12.431Z,99085.84
2023-04-02T20:26:40.161Z,99086.06
2023-04-02T20:29:08.057Z,99078.53
2023-04-02T20:31:36.229Z,99086.91
2023-04-02T20:34:05.760Z,99079.03
2023-04-02T20:36:33.783Z,99078.78
2023-04-02T20:39:01.532Z,99092.78
2023-04-02T20:41:29.430Z,99082.09
2023-04-02T20:43:57.523Z,99093.03
2023-04-02T20:46:25.790Z,99091.09
2023-04-02T20:48:53.754Z,99096.44
2023-04-02T20:51:21.921Z,99085.75
2023-04-02T20:53:49.722Z,99085.16
2023-04-02T20:56:19.150Z,99082.69
2023-04-02T20:58:46.973Z,99082.94
2023-04-02T21:01:21.589Z,99079.44
2023-04-02T21:03:50.516Z,99079.44
2023-04-02T21:06:21.497Z,99082.81
2023-04-02T21:08:50.149Z,99076.38
2023-04-02T21:11:18.620Z,99077.47
2023-04-02T21:13:46.609Z,99074.56
2023-04-02T21:16:16.589Z,99073.25
2023-04-02T21:18:45.223Z,99083.81
2023-04-02T21:21:14.091Z,99087.13
2023-04-02T21:23:43.076Z,99092.72
2023-04-02T21:26:14.758Z,99087.59
2023-04-02T21:28:43.554Z,99083.63
2023-04-02T21:31:17.144Z,99093.13
2023-04-02T21:33:47.363Z,99093.13
2023-04-02T21:36:23.890Z,99084.34
2023-04-02T21:39:04.661Z,99094.22
2023-04-02T21:41:40.436Z,99095.28
2023-04-02T21:44:09.714Z,99096.06
2023-04-02T21:46:39.083Z,99098.00
2023-04-02T21:49:10.098Z,99098.97
2023-04-02T21:51:39.368Z,99100.81
2023-04-02T21:54:08.136Z,99098.84
2023-04-02T21:56:38.542Z,99100.28
2023-04-02T21:59:07.626Z,99094.22
2023-04-02T22:01:40.532Z,99100.41
2023-04-02T22:04:09.525Z,99094.22
2023-04-02T22:06:41.576Z,99100.16
2023-04-02T22:09:12.746Z,99102.97
2023-04-02T22:11:46.698Z,99110.00
2023-04-02T22:14:15.075Z,99097.72
2023-04-02T22:16:43.675Z,99106.72
2023-04-02T22:19:13.624Z,99114.28
2023-04-02T22:21:41.585Z,99105.63
2023-04-02T22:24:13.259Z,99099.19
2023-04-02T22:26:41.219Z,99094.94
2023-04-02T22:29:09.483Z,99101.13
2023-04-02T22:31:37.360Z,99099.44
2023-04-02T22:34:06.710Z,99094.94
2023-04-02T22:36:34.886Z,99101.59
2023-04-02T22:39:05.652Z,99102.09
2023-04-02T22:41:33.944Z,99103.81
2023-04-02T22:44:02.524Z,99099.69
2023-04-02T22:46:31.235Z,99092.59
2023-04-02T22:48:59.169Z,99099.31
2023-04-02T22:51:28.024Z,99091.50
2023-04-02T22:53:56.406Z,99099.06
2023-04-02T22:56:32.169Z,99101.25
2023-04-02T22:59:00.905Z,99099.56
2023-04-02T23:01:32.149Z,99099.19
2023-04-02T23:04:00.015Z,99097.25
2023-04-02T23:06:28.384Z,99105.63
2023-04-02T23:08:56.508Z,99099.69
2023-04-02T23:11:27.430Z,99099.44
2023-04-02T23:13:56.852Z,99101.66
2023-04-02T23:16:28.717Z,99103.34
2023-04-02T23:18:57.087Z,99096.31
2023-04-02T23:21:25.077Z,99099.94
2023-04-02T23:23:53.239Z,99101.06
2023-04-02T23:26:22.084Z,99109.44
2023-04-02T23:28:50.866Z,99103.47
2023-04-02T23:31:21.537Z,99108.22
2023-04-02T23:33:50.645Z,99105.44
2023-04-02T23:36:22.543Z,99109.06
2023-04-02T23:38:57.740Z,99110.44
2023-04-02T23:41:27.193Z,99113.22
2023-04-02T23:43:56.106Z,99102.25
2023-04-02T23:46:24.904Z,99111.53
2023-04-02T23:48:53.139Z,99109.81
2023-04-02T23:51:21.282Z,99103.63
2023-04-02T23:54:09.155Z,99102.50
2023-04-02T23:56:36.822Z,99094.88
2023-04-02T23:59:04.592Z,99104.34
